首页
METAR-TAF:

METAR-TAF

机场 :

喬治皇子城機場

乔治王子城, 不列颠哥伦比亚, 加拿大

纬度: 53-53N, 经度: 122-41W, 海拔: 691米

当前天气观测

该预报发布于49分钟前的10:00 UTC
风速10节,风向,有时为15节阵风
温度 4°C
湿度 93%
气压 1006 hPa
能見度: 14.5公里
阴天层高于6000英尺
小雨

METAR: CYXS 151000Z AUTO 18010G15KT 9SM -RA OVC060 04/03 A2972 RMK SLP087

时间: 02:49 (10:49 UTC)

预报

该预报发布于4小时和11分钟前的06:38 UTC
预报有效从15日的 07点(UTC)到 15日的 19点(UTC)
风速12节,风向,有时为22节阵风
能見度: 10公里
阴天层高于8000英尺
短暂存在
从 15日的 07点(UTC)到 15日的 09点(UTC)
能見度: 10公里
阴天层高于4000英尺
小阵雨
从 15日的 0900点(UTC)
风速8节,风向
能見度: 10公里
散云层高于2000英尺
阴天层高于6000英尺
小雨
短暂存在
从 15日的 09点(UTC)到 15日的 17点(UTC)
能見度: 8.0公里
阴天层高于2000英尺
小雨, 轻雾
从 15日的 1700点(UTC)
风速8节,风向
能見度: 10公里
散云层高于3000英尺
阴天层高于8000英尺
短暂存在
从 15日的 17点(UTC)到 15日的 19点(UTC)
能見度: 10公里
多云层高于2000英尺
阴天层高于6000英尺
小阵雨

TAF: CYXS 150638Z 1507/1519 18012G22KT P6SM OVC080 TEMPO 1507/1509 P6SM -SHRA OVC040 FM150900 17008KT P6SM -RA SCT020 OVC060 TEMPO 1509/1517 5SM -RA BR OVC020 FM151700 19008KT P6SM SCT030 OVC080 TEMPO 1517/1519 P6SM -SHRA BKN020 OVC060 RMK FCST BASED ON AUTO OBS. NXT FCST BY 151300Z

超过4000个机场的气象观测和天气预报(METAR&TAF报告)。

可查询的气象台以黄色和红色小点在地图上表示。

将鼠标移到小点上方,可查看气象台名称。

然后点击查看天气观测和预报。

如需切换地图:点击带黑十字的绿色按钮放大地图;点击带横线的绿色按钮缩小地图;或者点击绿色箭头查看邻近地区的地图。


METAR-TAF: